Airport View

Enter AWOS ICAO identifier for current METAR.

ex. KFNL

CYZW 212300Z 15010KT 30SM SCT063 OVC085 14/07 A2935 RMK SC3AC5 SLP952 DENSITY ALT 3400FT

21 Sep 2019 23:44

Other Area AWOS: CWZW - CYXY - PAGY - PAHN

TAF CYZW 211738Z 2118/2201 15007KT P6SM FEW070 BKN120 TEMPO 2118/2201 P6SM -SHRA BKN070 BECMG 2123/2201 23008KT RMK NXT FCST WILL BE ISSUED AT 221445Z